Time;durP1;ratioP1;P1;durP2;ratioP2;P2;SDS_P1;SDS_P2;PMS_P1;PMS_P2;Temp;Humidity;BMP_temperature;BMP_pressure;BME280_temperature;BME280_humidity;BME280_pressure;Samples;Min_cycle;Max_cycle;Signal;HPM_P1;HPM_P2
2023/09/04 00:00:42;;;;;;;14.38;11.68;;;13.00;99.90;;;;;;5053415;28;20029;-67
2023/09/04 00:03:08;;;;;;;14.27;11.27;;;12.90;99.90;;;;;;5053015;28;20475;-67
2023/09/04 00:05:34;;;;;;;15.73;12.80;;;11.60;99.90;;;;;;5053351;28;20029;-67
2023/09/04 00:08:00;;;;;;;18.88;12.90;;;14.00;99.90;;;;;;5053168;28;20390;-67
2023/09/04 00:10:26;;;;;;;19.85;14.73;;;12.90;99.90;;;;;;5052305;28;20049;-68
2023/09/04 00:12:51;;;;;;;21.08;13.90;;;12.80;99.90;;;;;;5053612;28;20036;-67
2023/09/04 00:15:17;;;;;;;14.77;12.57;;;12.90;99.90;;;;;;5052798;28;20372;-67
2023/09/04 00:17:47;;;;;;;21.23;13.70;;;13.00;99.90;;;;;;5054012;28;20039;-67
2023/09/04 00:20:13;;;;;;;16.98;13.82;;;13.20;99.90;;;;;;5056278;28;20037;-68
2023/09/04 00:22:39;;;;;;;16.08;12.80;;;13.00;99.90;;;;;;5057051;28;20490;-68
2023/09/04 00:25:05;;;;;;;20.05;14.80;;;12.80;99.90;;;;;;5056978;28;20029;-69
2023/09/04 00:27:30;;;;;;;21.42;14.95;;;12.60;99.90;;;;;;5056262;28;20364;-67
2023/09/04 00:29:56;;;;;;;18.58;14.90;;;12.70;99.90;;;;;;5056627;28;20146;-67
2023/09/04 00:32:21;;;;;;;19.63;15.10;;;12.70;99.90;;;;;;5056922;28;20478;-67
2023/09/04 00:34:47;;;;;;;21.23;16.42;;;12.80;99.90;;;;;;5056388;28;20108;-67
2023/09/04 00:37:13;;;;;;;26.05;17.35;;;12.80;99.90;;;;;;5056812;28;20459;-67
2023/09/04 00:39:38;;;;;;;22.13;15.55;;;12.80;99.90;;;;;;5056429;28;20167;-68
2023/09/04 00:42:04;;;;;;;21.67;15.82;;;12.80;99.90;;;;;;5056247;28;20032;-67
2023/09/04 00:44:30;;;;;;;19.38;14.43;;;12.80;99.90;;;;;;5056270;28;20371;-67
2023/09/04 00:46:57;;;;;;;19.08;15.52;;;12.70;99.90;;;;;;5056687;28;20032;-67
2023/09/04 00:49:23;;;;;;;18.20;14.30;;;12.70;99.90;;;;;;5056232;28;20536;-67
2023/09/04 00:51:49;;;;;;;20.20;15.98;;;12.70;99.90;;;;;;5036076;28;20029;-67
2023/09/04 00:54:16;;;;;;;20.58;15.43;;;12.70;99.90;;;;;;5036567;28;20104;-67
2023/09/04 00:56:42;;;;;;;22.10;15.48;;;12.70;99.90;;;;;;5035988;28;20479;-67
2023/09/04 00:59:08;;;;;;;21.05;15.45;;;12.70;99.90;;;;;;5036235;28;20026;-67
2023/09/04 01:01:35;;;;;;;17.92;14.73;;;12.60;99.90;;;;;;5036472;28;20026;-67
2023/09/04 01:04:01;;;;;;;16.35;13.23;;;12.60;99.90;;;;;;5035686;28;20029;-68
2023/09/04 01:06:26;;;;;;;21.48;15.32;;;12.60;99.90;;;;;;5036167;28;20033;-70
2023/09/04 01:08:52;;;;;;;20.23;14.32;;;12.50;99.90;;;;;;5036027;28;20033;-67
2023/09/04 01:13:56;;;;;;;19.08;14.18;;;12.50;99.90;;;;;;5091677;28;20382;-67
2023/09/04 01:16:23;;;;;;;19.27;14.43;;;12.80;99.90;;;;;;5091742;28;20531;-67
2023/09/04 01:18:49;;;;;;;19.83;14.93;;;12.40;99.90;;;;;;5090845;28;20137;-67
2023/09/04 01:21:16;;;;;;;17.95;14.18;;;12.40;99.90;;;;;;5090904;28;20043;-67
2023/09/04 01:23:41;;;;;;;19.58;14.82;;;12.40;99.90;;;;;;5091221;28;20028;-67
2023/09/04 01:26:17;;;;;;;20.77;14.98;;;12.40;99.90;;;;;;5091547;28;20127;-67
2023/09/04 01:31:29;;;;;;;18.98;15.18;;;12.30;99.90;;;;;;5111946;27;20432;-67
2023/09/04 01:34:01;;;;;;;24.42;16.48;;;12.30;99.90;;;;;;5112158;28;20066;-67
2023/09/04 01:36:29;;;;;;;20.40;15.35;;;12.20;99.90;;;;;;5111739;28;20022;-67
2023/09/04 01:38:56;;;;;;;23.77;16.38;;;12.20;99.90;;;;;;5111702;28;20038;-67
2023/09/04 01:41:22;;;;;;;19.50;15.43;;;12.10;99.90;;;;;;5111943;28;20027;-67
2023/09/04 01:43:48;;;;;;;18.52;14.93;;;12.20;99.90;;;;;;5111465;28;20169;-67
2023/09/04 01:46:14;;;;;;;19.77;15.13;;;12.10;99.90;;;;;;5111264;28;20074;-67
2023/09/04 01:48:39;;;;;;;21.25;15.55;;;12.10;99.90;;;;;;5111498;28;20020;-67
2023/09/04 01:51:05;;;;;;;23.88;16.05;;;12.00;99.90;;;;;;5111398;28;20028;-67
2023/09/04 01:53:30;;;;;;;21.50;16.08;;;12.00;99.90;;;;;;5110896;28;20389;-67
2023/09/04 01:55:56;;;;;;;23.70;16.80;;;12.00;99.90;;;;;;5111340;28;20062;-67
2023/09/04 01:58:22;;;;;;;23.00;16.90;;;12.00;99.90;;;;;;5111604;28;20028;-67
2023/09/04 02:00:47;;;;;;;22.20;16.65;;;12.00;99.90;;;;;;5111622;28;20031;-69
2023/09/04 02:03:13;;;;;;;21.20;16.02;;;12.00;99.90;;;;;;5111252;28;20063;-67
2023/09/04 02:05:39;;;;;;;22.67;16.58;;;12.00;99.90;;;;;;5111142;28;20032;-68
2023/09/04 02:08:07;;;;;;;20.80;16.48;;;12.00;99.90;;;;;;5111514;28;20377;-67
2023/09/04 02:10:35;;;;;;;22.13;16.90;;;12.00;99.90;;;;;;5110963;27;20071;-67
2023/09/04 02:13:01;;;;;;;21.30;14.85;;;11.90;99.90;;;;;;5111159;28;20106;-67
2023/09/04 02:15:27;;;;;;;19.35;14.75;;;11.80;99.90;;;;;;5110541;28;20122;-67
2023/09/04 02:17:52;;;;;;;21.63;14.57;;;11.80;99.90;;;;;;5111084;28;20028;-67
2023/09/04 02:20:18;;;;;;;20.80;14.15;;;11.70;99.90;;;;;;5110983;28;20039;-67
2023/09/04 02:22:44;;;;;;;17.25;13.50;;;11.70;99.90;;;;;;5110882;28;20431;-67
2023/09/04 02:25:09;;;;;;;21.80;13.32;;;11.60;99.90;;;;;;5111141;28;20063;-67
2023/09/04 02:27:35;;;;;;;17.73;14.35;;;11.60;99.90;;;;;;5111108;28;20432;-67
2023/09/04 02:30:03;;;;;;;16.15;13.15;;;11.60;99.90;;;;;;5110163;28;20087;-67
2023/09/04 02:32:29;;;;;;;16.67;13.10;;;11.50;99.90;;;;;;5111058;28;20024;-67
2023/09/04 02:34:55;;;;;;;19.40;14.55;;;11.50;99.90;;;;;;5110617;28;20038;-67
2023/09/04 02:37:20;;;;;;;22.38;15.68;;;11.50;99.90;;;;;;5110548;28;20028;-67
2023/09/04 02:39:46;;;;;;;21.50;15.10;;;11.50;99.90;;;;;;5110363;28;20084;-67
2023/09/04 02:42:11;;;;;;;19.20;14.82;;;11.50;99.90;;;;;;5100105;28;20394;-68
2023/09/04 02:44:37;;;;;;;20.35;14.55;;;11.40;99.90;;;;;;5096544;28;20028;-67
2023/09/04 02:47:03;;;;;;;19.67;14.85;;;11.40;99.90;;;;;;5096959;28;20043;-67
2023/09/04 02:49:28;;;;;;;24.30;16.27;;;11.40;99.90;;;;;;5096140;28;20028;-68
2023/09/04 02:51:54;;;;;;;25.55;17.77;;;11.40;99.90;;;;;;5096804;28;20024;-68
2023/09/04 02:54:20;;;;;;;24.02;17.23;;;11.30;99.90;;;;;;5096988;28;20110;-67
2023/09/04 02:56:45;;;;;;;25.30;17.17;;;11.20;99.90;;;;;;5096063;28;20035;-67
2023/09/04 02:59:11;;;;;;;26.58;18.83;;;11.30;99.90;;;;;;5096677;28;20028;-67
2023/09/04 03:01:37;;;;;;;24.33;18.17;;;11.30;99.90;;;;;;5096877;28;20469;-67
2023/09/04 03:04:02;;;;;;;29.70;17.85;;;11.30;99.90;;;;;;5096498;28;20060;-67
2023/09/04 03:06:28;;;;;;;26.92;18.42;;;11.30;99.90;;;;;;5096763;28;20035;-67
2023/09/04 03:08:54;;;;;;;25.77;17.02;;;11.30;99.90;;;;;;5096469;28;20056;-67
2023/09/04 03:11:19;;;;;;;27.60;18.15;;;11.20;99.90;;;;;;5096674;28;20118;-67
2023/09/04 03:13:45;;;;;;;27.77;18.42;;;11.20;99.90;;;;;;5096607;28;20024;-67
2023/09/04 03:16:11;;;;;;;25.45;16.92;;;11.30;99.90;;;;;;5096519;28;20096;-67
2023/09/04 03:18:36;;;;;;;26.55;18.75;;;11.20;99.90;;;;;;5096217;28;20024;-68
2023/09/04 03:21:02;;;;;;;33.45;21.05;;;11.20;99.90;;;;;;5096385;28;20090;-68
2023/09/04 03:23:28;;;;;;;31.08;19.83;;;11.20;99.90;;;;;;5095898;28;20381;-67
2023/09/04 03:25:56;;;;;;;26.63;18.42;;;11.20;99.90;;;;;;5095727;28;20024;-67
2023/09/04 03:28:22;;;;;;;26.95;18.70;;;11.20;99.90;;;;;;5096110;28;20039;-68
2023/09/04 03:30:47;;;;;;;25.17;17.58;;;11.20;99.90;;;;;;5095126;28;20044;-68
2023/09/04 03:33:13;;;;;;;27.27;19.27;;;11.20;99.90;;;;;;5095533;28;20123;-66
2023/09/04 03:35:38;;;;;;;25.80;18.85;;;11.20;99.90;;;;;;5095682;28;20024;-67
2023/09/04 03:38:04;;;;;;;25.50;18.50;;;11.10;99.90;;;;;;5096111;28;20024;-67
2023/09/04 03:40:30;;;;;;;32.60;21.73;;;11.10;99.90;;;;;;5095629;28;20030;-67
2023/09/04 03:42:55;;;;;;;27.08;19.63;;;11.10;99.90;;;;;;5095518;28;20119;-67
2023/09/04 03:45:21;;;;;;;27.67;19.67;;;11.10;99.90;;;;;;5095613;28;20458;-66
2023/09/04 03:47:48;;;;;;;27.02;18.65;;;11.10;99.90;;;;;;5096048;28;20416;-66
2023/09/04 03:50:14;;;;;;;28.77;20.20;;;11.10;99.90;;;;;;5095394;28;20385;-66
2023/09/04 03:52:42;;;;;;;25.05;17.88;;;11.10;99.90;;;;;;5094812;28;20024;-66
2023/09/04 03:55:10;;;;;;;27.38;18.42;;;11.00;99.90;;;;;;5095405;28;20027;-66
2023/09/04 03:57:36;;;;;;;26.40;19.13;;;11.00;99.90;;;;;;5095791;28;20020;-66
2023/09/04 04:00:14;;;;;;;25.83;17.48;;;11.00;99.90;;;;;;5095455;28;20116;-66
2023/09/04 04:02:40;;;;;;;24.02;17.25;;;11.00;99.90;;;;;;5094693;28;20085;-66
2023/09/04 04:05:06;;;;;;;24.13;17.45;;;10.90;99.90;;;;;;5095334;28;20036;-66
2023/09/04 04:07:32;;;;;;;25.98;17.48;;;10.90;99.90;;;;;;5095122;28;20032;-66
2023/09/04 04:09:58;;;;;;;26.70;18.08;;;10.90;99.90;;;;;;5094612;28;20081;-66
2023/09/04 04:12:24;;;;;;;27.98;17.08;;;10.80;99.90;;;;;;5095604;28;20024;-66
2023/09/04 04:14:54;;;;;;;27.50;18.92;;;10.90;99.90;;;;;;5094767;28;20024;-66
2023/09/04 04:17:19;;;;;;;26.48;18.10;;;10.90;99.90;;;;;;5095488;28;20024;-66
2023/09/04 04:19:45;;;;;;;26.52;17.55;;;10.90;99.90;;;;;;5095319;28;20020;-66
2023/09/04 04:22:11;;;;;;;23.02;16.48;;;10.80;99.90;;;;;;5094608;28;20035;-66
2023/09/04 04:24:36;;;;;;;24.77;16.13;;;10.70;99.90;;;;;;5094760;28;20032;-65
2023/09/04 04:27:02;;;;;;;27.17;18.05;;;10.70;99.90;;;;;;5095242;28;20126;-65
2023/09/04 04:29:28;;;;;;;22.98;16.15;;;10.70;99.90;;;;;;5094382;28;20044;-65
2023/09/04 04:31:53;;;;;;;28.13;18.00;;;10.70;99.90;;;;;;5094920;28;20028;-65
2023/09/04 04:34:19;;;;;;;27.17;18.35;;;10.70;99.90;;;;;;5094635;28;20024;-65
2023/09/04 04:36:45;;;;;;;28.10;18.73;;;10.80;99.90;;;;;;5094358;28;20035;-65
2023/09/04 04:39:10;;;;;;;28.23;18.77;;;10.80;99.90;;;;;;5094757;28;20028;-65
2023/09/04 04:41:36;;;;;;;27.13;18.88;;;10.80;99.90;;;;;;5095071;28;20020;-65
2023/09/04 04:44:02;;;;;;;27.38;18.02;;;10.70;99.90;;;;;;5093895;28;20032;-65
2023/09/04 04:46:27;;;;;;;22.63;16.48;;;10.80;99.90;;;;;;5094530;28;20082;-66
2023/09/04 04:48:53;;;;;;;24.65;16.63;;;10.70;99.90;;;;;;5094552;28;20032;-65
2023/09/04 04:51:18;;;;;;;22.77;16.58;;;10.70;99.90;;;;;;5094501;28;20028;-65
2023/09/04 04:53:44;;;;;;;24.75;16.92;;;10.70;99.90;;;;;;5094084;28;20024;-65
2023/09/04 04:56:09;;;;;;;26.35;18.85;;;10.70;99.90;;;;;;5094675;28;20024;-65
2023/09/04 04:58:35;;;;;;;28.95;20.42;;;10.80;99.90;;;;;;5094678;28;20024;-66
2023/09/04 05:01:01;;;;;;;29.95;18.80;;;10.80;99.90;;;;;;5094627;28;20032;-65
2023/09/04 05:03:26;;;;;;;27.58;17.73;;;10.90;99.90;;;;;;5094186;28;20028;-65
2023/09/04 05:05:52;;;;;;;23.48;16.48;;;10.90;99.90;;;;;;5093880;28;20036;-65
2023/09/04 05:08:17;;;;;;;30.45;20.55;;;11.00;99.90;;;;;;5094312;28;20070;-65
2023/09/04 05:10:43;;;;;;;29.40;19.60;;;11.00;99.90;;;;;;5094054;28;20466;-65
2023/09/04 05:13:09;;;;;;;30.88;19.80;;;11.00;99.90;;;;;;5093872;28;20024;-65
2023/09/04 05:15:34;;;;;;;29.00;19.95;;;11.10;99.90;;;;;;5094405;28;20032;-65
2023/09/04 05:18:00;;;;;;;30.98;21.38;;;11.20;99.90;;;;;;5094445;28;20069;-65
2023/09/04 05:20:25;;;;;;;29.52;19.55;;;11.30;99.90;;;;;;5094024;28;20028;-65
2023/09/04 05:22:51;;;;;;;32.65;21.23;;;11.40;99.90;;;;;;5093621;28;20052;-65
2023/09/04 05:25:16;;;;;;;38.03;24.15;;;11.50;99.90;;;;;;5093907;28;20122;-66
2023/09/04 05:27:42;;;;;;;38.10;25.02;;;11.80;99.90;;;;;;5094052;28;20114;-66
2023/09/04 05:30:08;;;;;;;40.72;26.73;;;12.00;99.90;;;;;;5093475;28;20059;-66
2023/09/04 05:32:33;;;;;;;36.58;23.67;;;12.20;99.90;;;;;;5094017;28;20166;-66
2023/09/04 05:34:59;;;;;;;34.15;22.60;;;12.30;99.90;;;;;;5092553;28;20419;-66
2023/09/04 05:37:25;;;;;;;33.45;23.33;;;12.30;99.90;;;;;;5089539;28;20146;-68
2023/09/04 05:39:51;;;;;;;34.50;23.83;;;12.40;99.90;;;;;;5076598;28;20020;-66
2023/09/04 05:42:16;;;;;;;37.17;24.05;;;12.50;99.90;;;;;;5083103;28;20024;-73
2023/09/04 05:44:42;;;;;;;35.72;23.65;;;12.60;99.90;;;;;;5100805;28;20043;-66
2023/09/04 05:47:08;;;;;;;31.20;22.63;;;12.70;99.90;;;;;;5114476;28;20028;-66
2023/09/04 05:49:33;;;;;;;26.30;20.63;;;12.90;99.90;;;;;;5098141;28;20401;-69
2023/09/04 05:51:59;;;;;;;31.77;21.00;;;13.70;99.90;;;;;;5093811;28;20107;-68
2023/09/04 05:54:25;;;;;;;20.20;15.77;;;14.70;99.90;;;;;;5093761;28;20116;-68
2023/09/04 05:56:51;;;;;;;21.00;13.40;;;14.80;99.90;;;;;;5102777;28;20473;-68
2023/09/04 05:59:16;;;;;;;13.07;11.10;;;15.00;99.90;;;;;;5096208;28;20478;-68
2023/09/04 06:01:42;;;;;;;13.00;10.02;;;15.70;99.90;;;;;;5084537;28;20073;-70
2023/09/04 06:04:08;;;;;;;11.50;9.38;;;16.60;99.90;;;;;;5088578;28;20076;-68
2023/09/04 06:06:33;;;;;;;10.65;8.35;;;17.30;99.90;;;;;;5082022;28;20029;-68
2023/09/04 06:08:59;;;;;;;9.27;8.30;;;17.70;99.90;;;;;;5075561;28;20028;-67
2023/09/04 06:11:24;;;;;;;10.73;7.78;;;17.70;99.90;;;;;;5095229;28;20028;-68
2023/09/04 06:13:50;;;;;;;11.05;8.00;;;18.30;43.30;;;;;;5088861;28;20093;-68
2023/09/04 06:16:19;;;;;;;11.73;7.63;;;19.00;28.20;;;;;;5081450;28;20051;-68
2023/09/04 06:18:44;;;;;;;15.00;7.43;;;19.90;1.00;;;;;;5092442;28;20020;-69
2023/09/04 06:21:10;;;;;;;9.57;7.70;;;20.10;1.00;;;;;;5116870;28;20024;-68
2023/09/04 06:23:35;;;;;;;11.38;7.40;;;20.80;99.90;;;;;;5109535;28;20035;-69
2023/09/04 06:26:02;;;;;;;11.75;7.35;;;21.80;1.00;;;;;;5106793;28;20460;-71
2023/09/04 06:28:28;;;;;;;12.25;7.05;;;22.60;99.90;;;;;;5090181;28;20035;-70
2023/09/04 06:30:55;;;;;;;8.52;6.35;;;21.90;1.00;;;;;;5081950;28;20064;-69
2023/09/04 06:33:24;;;;;;;12.80;6.78;;;22.30;99.90;;;;;;5092670;28;20458;-68
2023/09/04 06:35:49;;;;;;;10.55;6.40;;;22.80;99.90;;;;;;5086882;28;20036;-73
2023/09/04 06:38:15;;;;;;;8.02;5.70;;;22.90;99.90;;;;;;5083495;28;20028;-70
2023/09/04 06:40:42;;;;;;;7.30;5.63;;;;;;;;;;5094733;28;20026;-69
2023/09/04 06:43:08;;;;;;;9.73;5.85;;;24.50;1.00;;;;;;5091849;28;20055;-73
2023/09/04 06:45:37;;;;;;;10.57;5.57;;;24.30;30.90;;;;;;5085043;28;20031;-71
2023/09/04 06:48:04;;;;;;;7.22;5.47;;;25.00;1.00;;;;;;5087056;28;20028;-71
2023/09/04 06:50:30;;;;;;;8.43;5.70;;;25.40;99.90;;;;;;5083369;28;20032;-74
2023/09/04 06:52:56;;;;;;;7.05;5.72;;;24.90;1.00;;;;;;5084927;28;20035;-70
2023/09/04 06:55:21;;;;;;;11.38;6.40;;;25.20;1.00;;;;;;5085046;28;20032;-71
2023/09/04 06:57:47;;;;;;;7.18;5.50;;;;;;;;;;5083004;28;20479;-71
2023/09/04 07:00:13;;;;;;;8.02;5.28;;;25.60;99.90;;;;;;5087524;28;20611;-71
2023/09/04 07:02:39;;;;;;;6.50;5.35;;;25.70;99.90;;;;;;5086413;28;20044;-72
2023/09/04 07:05:08;;;;;;;6.05;4.75;;;26.30;1.00;;;;;;5080608;28;20455;-72
2023/09/04 07:07:35;;;;;;;9.18;5.25;;;26.30;99.90;;;;;;5080937;28;20389;-72
2023/09/04 07:10:03;;;;;;;6.15;4.97;;;27.40;99.90;;;;;;5083862;28;20113;-72
2023/09/04 07:12:30;;;;;;;6.80;4.90;;;26.40;99.90;;;;;;5084975;28;20020;-71
2023/09/04 07:14:56;;;;;;;6.25;4.82;;;26.30;1.00;;;;;;5092863;28;20020;-72
2023/09/04 07:17:22;;;;;;;9.80;5.50;;;27.30;29.30;;;;;;5090349;28;20032;-72
2023/09/04 07:19:47;;;;;;;6.97;4.93;;;25.80;99.90;;;;;;5082973;28;20032;-72
2023/09/04 07:22:13;;;;;;;11.70;5.20;;;26.90;1.00;;;;;;5087622;28;20036;-72
2023/09/04 07:24:38;;;;;;;5.65;4.90;;;26.90;1.00;;;;;;5083919;28;20528;-72
2023/09/04 07:27:04;;;;;;;9.15;4.70;;;26.30;1.00;;;;;;5087882;28;20056;-72
2023/09/04 07:29:30;;;;;;;7.55;4.63;;;26.80;99.90;;;;;;5084138;28;20052;-72
2023/09/04 07:31:56;;;;;;;7.82;5.00;;;27.30;99.90;;;;;;5084604;28;20032;-72
2023/09/04 07:34:22;;;;;;;6.72;4.55;;;27.50;99.90;;;;;;5084290;28;20028;-72
2023/09/04 07:36:47;;;;;;;8.80;4.22;;;27.90;99.90;;;;;;5086417;28;20042;-72
2023/09/04 07:39:13;;;;;;;11.55;4.93;;;27.70;99.90;;;;;;5084123;28;20074;-73
2023/09/04 07:41:39;;;;;;;7.05;3.92;;;27.70;99.90;;;;;;5081600;28;20035;-73
2023/09/04 07:44:05;;;;;;;10.18;4.55;;;27.90;99.90;;;;;;5087592;28;20024;-72
2023/09/04 07:46:30;;;;;;;6.78;4.30;;;28.30;99.90;;;;;;5085458;28;20063;-72
2023/09/04 07:48:56;;;;;;;6.82;4.07;;;28.70;99.90;;;;;;5088624;28;20051;-72
2023/09/04 07:51:21;;;;;;;8.80;4.10;;;27.90;1.00;;;;;;5083177;28;20081;-73
2023/09/04 07:53:47;;;;;;;5.65;3.97;;;28.10;99.90;;;;;;5084450;28;20490;-72
2023/09/04 07:56:13;;;;;;;8.10;3.85;;;28.50;63.80;;;;;;5083733;28;20119;-72
2023/09/04 07:58:39;;;;;;;6.25;3.50;;;27.80;99.90;;;;;;5085168;28;20058;-73
2023/09/04 08:01:14;;;;;;;7.90;4.10;;;28.60;99.90;;;;;;5088830;28;20024;-72
2023/09/04 08:03:41;;;;;;;5.07;4.15;;;27.90;99.90;;;;;;5084102;28;20028;-72
2023/09/04 08:06:07;;;;;;;6.28;3.67;;;29.00;99.90;;;;;;5080349;28;20072;-73
2023/09/04 08:08:33;;;;;;;5.18;3.95;;;28.20;99.90;;;;;;5087997;28;20085;-72
2023/09/04 08:10:58;;;;;;;4.60;3.67;;;28.50;99.90;;;;;;5080418;28;20028;-74
2023/09/04 08:13:24;;;;;;;3.30;3.00;;;28.30;99.90;;;;;;5081058;28;20722;-73
2023/09/04 08:15:49;;;;;;;3.75;3.33;;;28.50;99.90;;;;;;5075084;28;20080;-73
2023/09/04 08:18:15;;;;;;;6.30;3.13;;;29.20;99.90;;;;;;5085614;28;20477;-73
2023/09/04 08:20:41;;;;;;;5.40;3.42;;;30.20;1.00;;;;;;5085823;28;20028;-73
2023/09/04 08:23:09;;;;;;;4.95;3.47;;;;;;;;;;5080258;28;20029;-73
2023/09/04 08:25:35;;;;;;;7.95;3.40;;;29.60;99.90;;;;;;5091531;28;20035;-71
2023/09/04 08:28:02;;;;;;;3.70;3.17;;;29.30;99.90;;;;;;5101369;28;20082;-72
2023/09/04 08:30:28;;;;;;;5.13;3.35;;;29.60;99.90;;;;;;5084473;28;20076;-73
2023/09/04 08:32:53;;;;;;;6.85;3.15;;;29.50;99.90;;;;;;5079129;28;20087;-72
2023/09/04 08:35:19;;;;;;;4.53;2.75;;;29.30;1.00;;;;;;5085257;28;20081;-72
2023/09/04 08:37:45;;;;;;;6.43;3.00;;;29.80;99.90;;;;;;5081302;28;20103;-72
2023/09/04 08:40:11;;;;;;;4.45;3.13;;;29.50;99.90;;;;;;5080582;28;20028;-73
2023/09/04 08:42:38;;;;;;;5.80;3.28;;;29.20;99.90;;;;;;5082814;28;20442;-72
2023/09/04 08:45:07;;;;;;;5.85;3.15;;;29.20;99.90;;;;;;5083223;28;20110;-72
2023/09/04 08:47:37;;;;;;;4.65;2.88;;;29.90;99.90;;;;;;5080673;28;20032;-73
2023/09/04 08:50:03;;;;;;;7.38;2.67;;;29.20;99.90;;;;;;5081503;28;20062;-73
2023/09/04 08:52:29;;;;;;;4.35;2.60;;;29.30;99.90;;;;;;5088698;28;20035;-73
2023/09/04 08:54:55;;;;;;;3.47;2.60;;;29.90;99.90;;;;;;5083678;28;20396;-72
2023/09/04 08:57:22;;;;;;;5.85;2.80;;;30.10;37.80;;;;;;5083986;28;20058;-71
2023/09/04 08:59:48;;;;;;;5.70;2.80;;;30.60;76.10;;;;;;5089525;28;20454;-72
2023/09/04 09:02:15;;;;;;;5.60;2.38;;;30.10;44.80;;;;;;5083262;28;20103;-72
2023/09/04 09:04:42;;;;;;;4.70;2.80;;;29.60;99.70;;;;;;5079807;28;20025;-71
2023/09/04 09:07:09;;;;;;;5.30;2.63;;;29.60;99.90;;;;;;5083038;28;20024;-71
2023/09/04 09:09:38;;;;;;;3.38;2.50;;;30.00;99.90;;;;;;5086079;28;20024;-72
2023/09/04 09:12:04;;;;;;;3.53;2.65;;;29.40;99.90;;;;;;5076464;28;20095;-72
2023/09/04 09:14:31;;;;;;;2.55;2.25;;;29.40;99.90;;;;;;5078008;28;20551;-72
2023/09/04 09:17:02;;;;;;;3.47;2.38;;;29.60;9.90;;;;;;5074369;28;20086;-72
2023/09/04 09:19:32;;;;;;;3.00;2.15;;;28.90;14.20;;;;;;5083137;28;20024;-72
2023/09/04 09:22:17;;;;;;;3.72;2.35;;;29.30;36.70;;;;;;5083325;28;20035;-72
2023/09/04 09:25:00;;;;;;;2.45;2.25;;;29.80;34.60;;;;;;5091346;28;20024;-72
2023/09/04 09:27:28;;;;;;;2.58;2.38;;;30.60;89.70;;;;;;5081675;28;20477;-73
2023/09/04 09:29:57;;;;;;;3.20;2.08;;;29.50;46.10;;;;;;5083322;28;20401;-72
2023/09/04 09:32:26;;;;;;;6.28;2.45;;;29.40;1.00;;;;;;5081851;28;20028;-72
2023/09/04 09:34:53;;;;;;;5.55;2.13;;;30.00;1.00;;;;;;5081428;28;20382;-73
2023/09/04 09:37:20;;;;;;;2.15;1.90;;;30.10;1.00;;;;;;5081287;28;20419;-73
2023/09/04 09:39:46;;;;;;;2.97;2.40;;;30.50;1.00;;;;;;5080969;28;20020;-72
2023/09/04 09:42:12;;;;;;;4.80;2.17;;;30.60;1.00;;;;;;5081422;28;20038;-72
2023/09/04 09:44:38;;;;;;;3.95;2.13;;;29.60;1.00;;;;;;5085916;28;20044;-73
2023/09/04 09:47:07;;;;;;;3.63;2.50;;;29.00;1.00;;;;;;5083309;28;20101;-72
2023/09/04 09:49:36;;;;;;;3.53;2.33;;;29.20;1.00;;;;;;5084635;28;20103;-72
2023/09/04 09:52:02;;;;;;;4.53;2.25;;;29.20;1.30;;;;;;5090098;28;20101;-72
2023/09/04 09:54:41;;;;;;;4.95;2.40;;;29.90;14.50;;;;;;5087575;28;20016;-72
2023/09/04 09:57:11;;;;;;;3.83;2.38;;;29.70;1.00;;;;;;5086749;28;20024;-73
2023/09/04 09:59:38;;;;;;;3.30;2.40;;;29.30;1.00;;;;;;5085288;28;20030;-73
2023/09/04 10:02:05;;;;;;;3.88;2.42;;;29.50;1.00;;;;;;5087198;28;20028;-72
2023/09/04 10:04:32;;;;;;;4.00;2.20;;;29.40;16.40;;;;;;5086051;28;20034;-73
2023/09/04 10:07:00;;;;;;;4.15;2.35;;;29.40;17.10;;;;;;5086577;28;20507;-72
2023/09/04 10:09:27;;;;;;;3.40;2.67;;;29.20;26.80;;;;;;5084564;28;20050;-72
2023/09/04 10:12:02;;;;;;;3.97;2.80;;;29.20;37.10;;;;;;5086094;28;20075;-72
2023/09/04 10:14:37;;;;;;;3.78;2.40;;;28.80;91.00;;;;;;5082606;28;20031;-72
2023/09/04 10:17:06;;;;;;;3.38;2.38;;;29.30;99.90;;;;;;5085323;28;20016;-73
2023/09/04 10:19:36;;;;;;;3.05;2.30;;;28.90;99.90;;;;;;5084118;28;20029;-72
2023/09/04 10:22:09;;;;;;;2.67;2.20;;;28.80;99.90;;;;;;5087199;28;20044;-72
2023/09/04 10:24:44;;;;;;;4.30;2.13;;;28.50;99.90;;;;;;5095250;28;20024;-72
2023/09/04 10:27:13;;;;;;;2.33;2.13;;;29.00;99.90;;;;;;5088306;28;20035;-72
2023/09/04 10:29:47;;;;;;;4.75;2.58;;;29.50;99.90;;;;;;5080627;28;20528;-73
2023/09/04 10:32:13;;;;;;;5.03;2.47;;;28.60;7.00;;;;;;5084163;28;20062;-72
2023/09/04 10:34:40;;;;;;;2.75;2.38;;;28.60;15.50;;;;;;5080880;28;20020;-73
2023/09/04 10:37:10;;;;;;;2.72;2.28;;;28.90;33.20;;;;;;5080026;28;20430;-72
2023/09/04 10:39:36;;;;;;;4.40;2.70;;;29.30;20.30;;;;;;5087865;28;20037;-72
2023/09/04 10:42:03;;;;;;;3.10;2.25;;;29.30;69.40;;;;;;5081924;28;20307;-72
2023/09/04 10:44:53;;;;;;;4.05;2.22;;;29.40;99.90;;;;;;5095326;28;20544;-72
2023/09/04 10:47:20;;;;;;;2.22;2.03;;;29.50;99.90;;;;;;5091535;28;20078;-73
2023/09/04 10:49:47;;;;;;;4.38;2.03;;;29.40;99.90;;;;;;5085879;28;20440;-72
2023/09/04 10:52:13;;;;;;;3.35;2.05;;;29.40;99.90;;;;;;5082824;28;20035;-73
2023/09/04 10:54:40;;;;;;;3.58;2.10;;;29.00;99.90;;;;;;5078408;28;20082;-74
2023/09/04 10:57:10;;;;;;;3.17;2.08;;;28.80;99.90;;;;;;5086872;28;20119;-72
2023/09/04 11:02:35;;;;;;;2.42;2.17;;;29.00;99.90;;;;;;5064848;27;20403;-73
2023/09/04 11:05:02;;;;;;;3.65;2.50;;;28.20;1.00;;;;;;5063706;28;20071;-72
2023/09/04 11:07:31;;;;;;;2.70;2.47;;;27.70;2.20;;;;;;5062884;28;20024;-73
2023/09/04 11:12:55;;;;;;;4.13;2.50;;;27.20;27.30;;;;;;5048908;22;20750;-78
2023/09/04 11:15:22;;;;;;;5.78;2.70;;;27.30;80.00;;;;;;5018091;28;20488;-77
2023/09/04 11:17:50;;;;;;;5.32;2.60;;;26.50;38.50;;;;;;5019721;28;20026;-78
2023/09/04 11:20:17;;;;;;;3.80;2.58;;;26.10;1.00;;;;;;5020992;28;20057;-77
2023/09/04 11:22:49;;;;;;;3.00;2.40;;;28.50;99.90;;;;;;5024969;28;20034;-77
2023/09/04 11:25:16;;;;;;;2.33;2.13;;;26.30;99.90;;;;;;5023391;28;20068;-77
2023/09/04 11:27:44;;;;;;;3.45;3.15;;;26.80;99.90;;;;;;5025702;28;20456;-78
2023/09/04 11:30:10;;;;;;;3.05;2.70;;;26.80;1.00;;;;;;5025484;28;20036;-77
2023/09/04 11:32:37;;;;;;;2.97;2.55;;;26.70;1.00;;;;;;5024915;28;20034;-78
2023/09/04 11:35:03;;;;;;;2.75;2.55;;;26.30;1.00;;;;;;5029770;28;20052;-78
2023/09/04 11:37:32;;;;;;;4.35;2.75;;;26.20;1.00;;;;;;5025173;28;20029;-77
2023/09/04 11:40:00;;;;;;;2.95;2.40;;;26.20;1.00;;;;;;5025707;28;20022;-77
2023/09/04 11:42:27;;;;;;;3.85;2.55;;;26.30;99.90;;;;;;5023501;28;20488;-78
2023/09/04 11:44:54;;;;;;;2.65;2.30;;;26.00;99.90;;;;;;5019035;28;20116;-79
2023/09/04 11:47:21;;;;;;;3.65;2.58;;;26.30;99.90;;;;;;5024833;28;20179;-78
2023/09/04 11:49:46;;;;;;;3.20;2.40;;;26.20;1.00;;;;;;5021235;28;20034;-77
2023/09/04 11:52:14;;;;;;;3.33;2.60;;;26.40;1.00;;;;;;5022153;28;20041;-78
2023/09/04 11:54:40;;;;;;;3.55;2.42;;;26.50;1.00;;;;;;5019824;28;20410;-78
2023/09/04 11:57:07;;;;;;;3.10;2.67;;;26.70;1.00;;;;;;5023677;28;20042;-78
2023/09/04 11:59:35;;;;;;;4.18;2.65;;;26.70;99.90;;;;;;5020041;28;20022;-83
2023/09/04 12:02:02;;;;;;;2.35;2.15;;;26.80;99.90;;;;;;5023607;28;20025;-87
2023/09/04 12:04:31;;;;;;;4.03;2.60;;;26.80;99.90;;;;;;5025003;28;20053;-85
2023/09/04 12:06:59;;;;;;;2.65;2.45;;;26.80;76.90;;;;;;5026927;28;20076;-87
2023/09/04 12:09:25;;;;;;;4.60;2.38;;;26.80;99.90;;;;;;5029866;28;20022;-80
2023/09/04 12:11:51;;;;;;;3.53;2.47;;;26.80;22.50;;;;;;5015098;28;20038;-78
2023/09/04 12:14:17;;;;;;;2.53;2.20;;;26.50;24.00;;;;;;5022256;28;20097;-79
2023/09/04 12:16:44;;;;;;;2.45;2.22;;;26.60;22.10;;;;;;5024845;28;20117;-78
2023/09/04 12:19:10;;;;;;;4.28;2.17;;;26.80;93.10;;;;;;5022764;28;20042;-83
2023/09/04 12:21:35;;;;;;;2.97;2.22;;;26.60;76.60;;;;;;5024501;28;20084;-85
2023/09/04 12:24:11;;;;;;;2.83;2.10;;;26.60;62.40;;;;;;5015181;28;20109;-86
2023/09/04 12:26:37;;;;;;;2.30;2.10;;;26.90;99.90;;;;;;5014850;28;20038;-78
2023/09/04 12:29:45;;;;;;;3.22;2.13;;;26.80;8.80;;;;;;5017725;28;20444;-80
2023/09/04 12:32:12;;;;;;;2.53;2.00;;;27.00;1.00;;;;;;5005859;28;20057;-82
2023/09/04 12:34:38;;;;;;;2.10;1.80;;;27.00;1.00;;;;;;5008455;28;20557;-85
2023/09/04 12:37:04;;;;;;;2.28;2.08;;;26.80;1.00;;;;;;5015423;28;20035;-76
2023/09/04 12:39:30;;;;;;;3.80;1.95;;;26.80;1.00;;;;;;5009237;28;20460;-81
2023/09/04 12:42:01;;;;;;;2.80;2.10;;;26.70;1.00;;;;;;5012595;28;20120;-79
2023/09/04 12:44:27;;;;;;;3.08;2.10;;;27.00;1.00;;;;;;5007286;28;20030;-84
2023/09/04 12:46:52;;;;;;;2.17;1.90;;;27.20;1.00;;;;;;5011486;28;20394;-82
2023/09/04 12:49:18;;;;;;;1.77;1.48;;;27.30;1.00;;;;;;5006575;28;20092;-86